createdAt,value
2018-06-02T00:01:35.945Z,14.73
2018-06-02T00:04:04.869Z,12.57
2018-06-02T00:06:33.689Z,9.53
2018-06-02T00:09:03.532Z,8.10
2018-06-02T00:11:32.383Z,6.93
2018-06-02T00:14:01.485Z,7.60
2018-06-02T00:16:30.287Z,6.90
2018-06-02T00:18:59.844Z,6.70
2018-06-02T00:21:28.616Z,6.43
2018-06-02T00:23:57.426Z,8.57
2018-06-02T00:26:26.512Z,7.90
2018-06-02T00:28:55.414Z,8.33
2018-06-02T00:31:25.230Z,8.47
2018-06-02T00:33:54.188Z,7.70
2018-06-02T00:36:23.259Z,7.93
2018-06-02T00:38:52.083Z,7.33
2018-06-02T00:41:20.914Z,7.67
2018-06-02T00:44:13.153Z,6.77
2018-06-02T00:46:42.802Z,6.67
2018-06-02T00:49:11.612Z,7.03
2018-06-02T00:51:40.599Z,6.27
2018-06-02T00:54:09.368Z,6.43
2018-06-02T00:56:38.261Z,7.07
2018-06-02T00:59:07.017Z,6.33
2018-06-02T01:01:36.722Z,6.70
2018-06-02T01:04:05.539Z,6.67
2018-06-02T01:06:34.349Z,7.50
2018-06-02T01:09:03.360Z,6.83
2018-06-02T01:11:32.334Z,6.83
2018-06-02T01:14:01.220Z,6.83
2018-06-02T01:16:30.090Z,6.50
2018-06-02T01:18:59.782Z,6.10
2018-06-02T01:21:28.619Z,5.70
2018-06-02T01:23:57.474Z,6.67
2018-06-02T01:26:26.343Z,7.40
2018-06-02T01:28:55.195Z,6.50
2018-06-02T01:31:24.014Z,6.60
2018-06-02T01:33:52.909Z,6.87
2018-06-02T01:36:21.705Z,6.90
2018-06-02T01:38:51.311Z,7.03
2018-06-02T01:41:20.209Z,6.93
2018-06-02T01:43:49.762Z,6.90
2018-06-02T01:46:18.671Z,6.80
2018-06-02T01:48:47.506Z,6.87
2018-06-02T01:51:16.406Z,7.27
2018-06-02T01:53:45.557Z,6.80
2018-06-02T01:56:14.561Z,6.67
2018-06-02T01:58:43.432Z,7.63
2018-06-02T02:01:12.303Z,7.10
2018-06-02T02:03:41.178Z,6.90
2018-06-02T02:06:10.003Z,7.13
2018-06-02T02:08:39.634Z,7.77
2018-06-02T02:11:08.474Z,7.27
2018-06-02T02:13:37.377Z,7.70
2018-06-02T02:16:06.164Z,8.10
2018-06-02T02:18:34.990Z,7.80
2018-06-02T02:21:04.648Z,8.93
2018-06-02T02:23:33.627Z,7.97
2018-06-02T02:26:02.666Z,8.00
2018-06-02T02:28:32.312Z,9.23
2018-06-02T02:31:01.188Z,8.50
2018-06-02T02:33:30.404Z,8.50
2018-06-02T02:35:59.190Z,8.43
2018-06-02T02:38:28.392Z,8.37
2018-06-02T02:40:57.247Z,8.60
2018-06-02T02:43:26.061Z,9.10
2018-06-02T02:45:55.663Z,9.27
2018-06-02T02:48:24.722Z,8.70
2018-06-02T02:50:53.514Z,9.03
2018-06-02T02:53:22.795Z,8.60
2018-06-02T02:55:51.739Z,8.40
2018-06-02T02:58:21.359Z,8.47
2018-06-02T03:00:50.188Z,10.63
2018-06-02T03:03:19.100Z,10.50
2018-06-02T03:05:47.952Z,9.93
2018-06-02T03:08:17.008Z,8.57
2018-06-02T03:10:46.652Z,9.27
2018-06-02T03:13:15.529Z,8.23
2018-06-02T03:15:45.152Z,8.80
2018-06-02T03:18:14.055Z,8.33
2018-06-02T03:20:42.890Z,8.27
2018-06-02T03:23:11.662Z,8.20
2018-06-02T03:25:40.562Z,8.47
2018-06-02T03:28:10.357Z,8.80
2018-06-02T03:30:39.207Z,9.50
2018-06-02T03:33:08.936Z,10.60
2018-06-02T03:35:37.747Z,9.07
2018-06-02T03:38:06.578Z,10.20
2018-06-02T03:40:35.724Z,8.60
2018-06-02T03:43:05.439Z,8.30
2018-06-02T03:45:34.363Z,8.30
2018-06-02T03:48:04.326Z,8.00
2018-06-02T03:50:33.216Z,8.33
2018-06-02T03:53:02.200Z,8.07
2018-06-02T03:55:31.187Z,7.87
2018-06-02T03:58:00.047Z,8.47
2018-06-02T04:00:28.877Z,8.47
2018-06-02T04:02:57.634Z,8.20
2018-06-02T04:05:26.459Z,8.03
2018-06-02T04:07:55.303Z,8.17
2018-06-02T04:10:24.903Z,8.67
2018-06-02T04:12:54.529Z,7.67
2018-06-02T04:15:23.741Z,7.20
2018-06-02T04:17:52.662Z,9.23
2018-06-02T04:20:21.592Z,9.97
2018-06-02T04:22:50.589Z,10.97
2018-06-02T04:25:20.174Z,11.37
2018-06-02T04:27:48.981Z,10.77
2018-06-02T04:30:17.831Z,12.20
2018-06-02T04:32:47.513Z,11.73
2018-06-02T04:35:16.347Z,13.10
2018-06-02T04:37:45.215Z,14.83
2018-06-02T04:40:13.997Z,15.80
2018-06-02T04:42:42.874Z,18.00
2018-06-02T04:45:12.453Z,22.07
2018-06-02T04:47:41.424Z,28.80
2018-06-02T04:50:10.387Z,23.77
2018-06-02T04:52:39.242Z,19.10
2018-06-02T04:55:08.855Z,13.03
2018-06-02T04:57:37.932Z,10.07
2018-06-02T05:00:07.793Z,9.03
2018-06-02T05:02:36.781Z,8.73
2018-06-02T05:05:05.741Z,9.70
2018-06-02T05:07:35.295Z,9.83
2018-06-02T05:10:04.319Z,10.60
2018-06-02T05:12:33.500Z,10.80
2018-06-02T05:15:02.363Z,9.30
2018-06-02T05:17:31.218Z,9.43
2018-06-02T05:20:00.034Z,10.17
2018-06-02T05:22:28.826Z,10.67
2018-06-02T05:24:57.722Z,11.87
2018-06-02T05:27:26.828Z,11.10
2018-06-02T05:29:55.635Z,10.10
2018-06-02T05:32:24.459Z,10.80
2018-06-02T05:34:54.002Z,11.03
2018-06-02T05:37:22.941Z,11.33
2018-06-02T05:39:51.890Z,10.90
2018-06-02T05:42:20.808Z,11.23
2018-06-02T05:44:49.661Z,11.30
2018-06-02T05:47:18.635Z,11.13
2018-06-02T05:49:47.511Z,9.87
2018-06-02T05:52:16.370Z,9.87
2018-06-02T05:54:45.654Z,10.13
2018-06-02T05:57:14.475Z,10.37
2018-06-02T05:59:45.167Z,19.23
2018-06-02T06:02:13.484Z,17.27
2018-06-02T06:04:42.456Z,15.10
2018-06-02T06:07:11.267Z,12.20
2018-06-02T06:09:40.113Z,10.23
2018-06-02T06:12:09.065Z,11.53
2018-06-02T06:14:40.330Z,11.73
2018-06-02T06:17:09.398Z,10.87
2018-06-02T06:19:39.284Z,10.13
2018-06-02T06:22:08.241Z,11.43
2018-06-02T06:24:36.993Z,10.53
2018-06-02T06:27:06.061Z,10.17
2018-06-02T06:29:35.841Z,8.60
2018-06-02T06:34:39.844Z,10.20
2018-06-02T06:37:09.525Z,11.00
2018-06-02T06:39:50.867Z,9.70
2018-06-02T06:42:25.569Z,11.53
2018-06-02T06:44:55.145Z,11.33
2018-06-02T06:47:24.107Z,9.90
2018-06-02T06:49:52.933Z,9.83
2018-06-02T06:52:22.024Z,9.87
2018-06-02T06:54:51.157Z,10.40
2018-06-02T06:57:21.042Z,9.40
2018-06-02T06:59:50.856Z,9.27
2018-06-02T07:02:20.228Z,8.93
2018-06-02T07:04:49.091Z,9.50
2018-06-02T07:07:18.015Z,8.40
2018-06-02T07:09:46.787Z,7.70
2018-06-02T07:12:15.727Z,8.23
2018-06-02T07:14:45.466Z,8.70
2018-06-02T07:17:14.281Z,8.83
2018-06-02T08:48:41.404Z,10.23
2018-06-02T08:51:10.367Z,8.57
2018-06-02T08:53:40.354Z,8.43
2018-06-02T08:56:10.259Z,10.87
2018-06-02T08:58:39.209Z,8.83
2018-06-02T09:01:08.482Z,9.23
2018-06-02T09:03:37.557Z,9.33
2018-06-02T09:06:07.600Z,8.67
2018-06-02T09:08:37.405Z,10.00
2018-06-02T09:11:07.048Z,9.07
2018-06-02T09:13:36.851Z,8.37
2018-06-02T09:16:06.713Z,9.30
2018-06-02T09:18:35.654Z,10.13
2018-06-02T09:21:05.289Z,10.47
2018-06-02T09:23:34.103Z,11.37
2018-06-02T09:26:04.728Z,12.63
2018-06-02T09:28:33.812Z,10.17
2018-06-02T09:31:03.745Z,7.10
2018-06-02T09:33:32.668Z,6.70
2018-06-02T09:36:01.532Z,6.37
2018-06-02T09:38:30.388Z,5.93
2018-06-02T09:40:59.240Z,5.83
2018-06-02T09:43:28.878Z,6.10
2018-06-02T09:45:57.730Z,5.97
2018-06-02T09:48:26.585Z,6.33
2018-06-02T09:50:55.674Z,6.13
2018-06-02T09:53:30.014Z,7.93
2018-06-02T09:55:59.877Z,5.73
2018-06-02T09:58:29.564Z,5.80
2018-06-02T10:00:59.424Z,5.60
2018-06-02T10:03:29.346Z,5.23
2018-06-02T10:05:58.658Z,5.03
2018-06-02T10:08:28.345Z,5.27
2018-06-02T10:10:57.255Z,4.70
2018-06-02T10:13:26.082Z,5.10
2018-06-02T10:15:54.987Z,4.97
2018-06-02T10:18:24.652Z,4.70
2018-06-02T10:20:53.456Z,4.73
2018-06-02T10:23:22.483Z,6.27
2018-06-02T10:25:52.572Z,4.70
2018-06-02T10:28:21.344Z,5.10
2018-06-02T10:30:50.222Z,3.90
2018-06-02T10:33:19.075Z,5.73
2018-06-02T10:35:49.897Z,4.40
2018-06-02T10:38:18.752Z,4.10
2018-06-02T10:40:47.605Z,3.93
2018-06-02T10:43:17.288Z,4.20
2018-06-02T10:45:46.832Z,4.17
2018-06-02T10:48:15.700Z,4.30
2018-06-02T10:50:44.546Z,5.70
2018-06-02T10:53:13.369Z,4.63
2018-06-02T10:55:42.370Z,3.90
2018-06-02T10:58:11.322Z,4.37
2018-06-02T11:00:40.693Z,4.07
2018-06-02T11:03:10.201Z,4.10
2018-06-02T11:05:39.029Z,4.10
2018-06-02T11:08:07.832Z,4.50
2018-06-02T11:10:36.774Z,4.00
2018-06-02T11:13:05.964Z,3.60
2018-06-02T11:15:34.871Z,4.53
2018-06-02T11:18:04.643Z,4.13
2018-06-02T11:20:33.495Z,3.80
2018-06-02T11:23:02.302Z,3.80
2018-06-02T11:25:31.499Z,3.80
2018-06-02T11:28:00.418Z,3.93
2018-06-02T11:30:29.699Z,3.47
2018-06-02T11:32:59.432Z,3.67
2018-06-02T11:35:28.346Z,3.30
2018-06-02T11:37:57.096Z,4.00
2018-06-02T11:40:25.868Z,3.90
2018-06-02T11:42:54.705Z,3.77
2018-06-02T11:45:23.679Z,3.57
2018-06-02T11:47:52.627Z,3.67
2018-06-02T11:50:21.475Z,3.80
2018-06-02T11:52:50.275Z,4.00
2018-06-02T11:55:29.076Z,3.57
2018-06-02T11:58:01.013Z,4.20
2018-06-02T12:00:30.099Z,3.40
2018-06-02T12:02:58.943Z,3.53
2018-06-02T12:05:28.605Z,4.20
2018-06-02T12:07:57.551Z,4.07
2018-06-02T12:10:27.178Z,4.20
2018-06-02T12:12:56.050Z,8.07
2018-06-02T12:15:25.256Z,4.57
2018-06-02T12:17:54.928Z,4.60
2018-06-02T12:20:24.510Z,3.87
2018-06-02T12:22:53.405Z,4.03
2018-06-02T12:25:23.017Z,4.30
2018-06-02T12:27:51.855Z,4.30
2018-06-02T12:30:20.923Z,4.27
2018-06-02T12:32:49.809Z,5.10
2018-06-02T12:35:19.538Z,4.37
2018-06-02T12:37:48.593Z,5.03
2018-06-02T12:40:17.791Z,4.43
2018-06-02T12:42:46.738Z,5.37
2018-06-02T12:45:16.444Z,4.77
2018-06-02T12:47:45.262Z,4.87
2018-06-02T12:50:14.126Z,4.90
2018-06-02T12:52:42.914Z,4.77
2018-06-02T12:55:11.838Z,4.67
2018-06-02T12:57:41.359Z,5.10
2018-06-02T13:00:10.213Z,4.47
2018-06-02T13:02:39.831Z,5.30
2018-06-02T13:05:08.594Z,5.03
2018-06-02T13:07:37.634Z,4.70
2018-06-02T13:10:07.128Z,5.00
2018-06-02T13:12:36.041Z,5.20
2018-06-02T13:15:04.895Z,4.83
2018-06-02T13:17:33.698Z,5.77
2018-06-02T13:20:02.499Z,4.77
2018-06-02T13:22:32.247Z,5.40
2018-06-02T13:25:02.211Z,4.90
2018-06-02T13:27:32.629Z,4.43
2018-06-02T13:30:02.019Z,4.50
2018-06-02T13:32:32.583Z,5.20
2018-06-02T13:35:01.831Z,5.10
2018-06-02T13:37:31.005Z,5.27
2018-06-02T13:39:59.845Z,4.70
2018-06-02T13:42:28.541Z,4.50
2018-06-02T13:44:57.289Z,4.67
2018-06-02T13:47:26.161Z,4.73
2018-06-02T13:49:55.064Z,4.67
2018-06-02T13:52:23.818Z,4.73
2018-06-02T13:54:52.761Z,4.80
2018-06-02T13:57:21.821Z,4.30
2018-06-02T13:59:50.749Z,4.77
2018-06-02T14:02:19.520Z,4.43
2018-06-02T14:04:48.293Z,4.60
2018-06-02T14:07:17.321Z,4.47
2018-06-02T14:09:46.082Z,4.00
2018-06-02T14:12:14.806Z,4.50
2018-06-02T14:14:43.887Z,4.07
2018-06-02T14:17:13.304Z,4.53
2018-06-02T14:19:45.950Z,4.13
2018-06-02T14:22:16.952Z,4.23
2018-06-02T14:24:53.365Z,3.90
2018-06-02T14:27:23.232Z,4.57
2018-06-02T14:29:52.816Z,4.30
2018-06-02T14:32:21.984Z,4.63
2018-06-02T14:34:50.780Z,4.50
2018-06-02T14:37:19.774Z,4.67
2018-06-02T14:39:48.629Z,3.83
2018-06-02T14:42:17.396Z,3.93
2018-06-02T14:44:47.149Z,4.03
2018-06-02T14:47:15.981Z,4.07
2018-06-02T14:49:45.802Z,4.73
2018-06-02T14:52:15.620Z,4.00
2018-06-02T14:54:44.513Z,4.50
2018-06-02T14:57:13.314Z,4.30
2018-06-02T14:59:42.868Z,4.60
2018-06-02T15:02:12.484Z,4.40
2018-06-02T15:04:41.280Z,4.30
2018-06-02T15:07:10.259Z,4.20
2018-06-02T15:09:39.176Z,4.60
2018-06-02T15:12:07.985Z,5.30
2018-06-02T15:14:37.522Z,4.60
2018-06-02T15:17:06.422Z,5.40
2018-06-02T15:19:35.486Z,4.90
2018-06-02T15:22:04.284Z,4.87
2018-06-02T15:24:33.282Z,4.50
2018-06-02T15:27:02.179Z,4.20
2018-06-02T15:29:30.991Z,5.53
2018-06-02T15:31:59.870Z,5.53
2018-06-02T15:34:28.733Z,5.30
2018-06-02T15:36:57.721Z,4.97
2018-06-02T15:39:27.313Z,5.43
2018-06-02T15:41:56.176Z,4.67
2018-06-02T15:44:25.291Z,6.40
2018-06-02T15:46:54.866Z,5.20
2018-06-02T15:49:23.692Z,4.20
2018-06-02T15:51:53.363Z,4.30
2018-06-02T15:54:22.560Z,3.80
2018-06-02T15:56:51.503Z,4.20
2018-06-02T15:59:20.193Z,5.40
2018-06-02T16:01:49.774Z,3.87
2018-06-02T16:04:19.043Z,5.17
2018-06-02T16:06:48.669Z,4.20
2018-06-02T16:09:18.309Z,4.40
2018-06-02T16:11:49.058Z,5.13
2018-06-02T16:14:18.620Z,4.57
2018-06-02T16:16:47.453Z,4.20
2018-06-02T16:19:16.519Z,4.20
2018-06-02T16:21:45.395Z,4.67
2018-06-02T16:24:14.414Z,4.50
2018-06-02T16:26:43.173Z,4.53
2018-06-02T16:29:12.059Z,3.90
2018-06-02T16:31:41.652Z,4.00
2018-06-02T16:34:11.295Z,4.73
2018-06-02T16:36:40.118Z,3.77
2018-06-02T16:39:10.625Z,4.33
2018-06-02T16:41:40.154Z,3.97
2018-06-02T16:44:09.159Z,4.40
2018-06-02T16:46:37.844Z,4.00
2018-06-02T16:49:06.689Z,18.07
2018-06-02T16:51:35.560Z,9.83
2018-06-02T16:54:04.758Z,9.53
2018-06-02T16:56:34.282Z,12.40
2018-06-02T16:59:03.098Z,5.73
2018-06-02T17:01:31.927Z,6.50
2018-06-02T17:04:00.836Z,9.00
2018-06-02T17:06:30.611Z,31.67
2018-06-02T17:08:59.536Z,29.73
2018-06-02T17:11:28.617Z,11.83
2018-06-02T17:13:58.149Z,9.00
2018-06-02T17:16:27.827Z,12.80
2018-06-02T17:18:56.570Z,7.03
2018-06-02T17:21:25.716Z,6.77
2018-06-02T17:23:54.490Z,23.10
2018-06-02T17:26:23.512Z,29.87
2018-06-02T17:28:53.139Z,18.90
2018-06-02T17:31:21.840Z,9.00
2018-06-02T17:33:50.557Z,6.80
2018-06-02T17:36:19.245Z,5.37
2018-06-02T17:38:47.942Z,5.57
2018-06-02T17:41:16.821Z,5.57
2018-06-02T17:43:46.348Z,5.97
2018-06-02T17:46:15.072Z,5.40
2018-06-02T17:48:44.051Z,5.10
2018-06-02T17:51:12.872Z,5.30
2018-06-02T17:53:47.615Z,5.53
2018-06-02T17:56:17.679Z,5.47
2018-06-02T17:58:48.061Z,5.73
2018-06-02T18:01:19.250Z,5.53
2018-06-02T18:03:49.114Z,5.47
2018-06-02T18:06:17.922Z,5.80
2018-06-02T18:08:46.796Z,5.77
2018-06-02T18:11:15.816Z,5.80
2018-06-02T18:13:45.749Z,6.27
2018-06-02T18:16:14.731Z,6.40
2018-06-02T18:18:43.652Z,6.33
2018-06-02T18:21:12.410Z,7.40
2018-06-02T18:23:41.144Z,7.77
2018-06-02T18:26:09.870Z,7.07
2018-06-02T18:28:38.859Z,6.87
2018-06-02T18:31:07.686Z,10.83
2018-06-02T18:33:36.465Z,18.03
2018-06-02T18:36:05.461Z,95.47
2018-06-02T18:38:34.933Z,97.90
2018-06-02T18:41:03.601Z,51.97
2018-06-02T18:43:32.450Z,12.80
2018-06-02T18:46:01.781Z,6.87
2018-06-02T18:48:33.174Z,7.40
2018-06-02T18:51:02.215Z,6.53
2018-06-02T18:53:30.966Z,7.13
2018-06-02T18:55:59.794Z,6.17
2018-06-02T18:58:28.427Z,6.13
2018-06-02T19:00:57.418Z,5.73
2018-06-02T19:03:27.918Z,6.23
2018-06-02T19:05:56.678Z,6.50
2018-06-02T19:08:25.879Z,6.57
2018-06-02T19:10:55.494Z,6.70
2018-06-02T19:13:24.242Z,7.33
2018-06-02T19:15:53.966Z,7.10
2018-06-02T19:18:23.493Z,8.90
2018-06-02T19:20:52.221Z,8.20
2018-06-02T19:23:21.137Z,8.50
2018-06-02T19:25:50.709Z,11.87
2018-06-02T19:28:19.419Z,15.67
2018-06-02T19:30:48.131Z,10.87
2018-06-02T19:33:16.913Z,8.47
2018-06-02T19:35:45.766Z,7.20
2018-06-02T19:38:14.467Z,6.93
2018-06-02T19:40:43.329Z,7.27
2018-06-02T19:43:12.045Z,7.00
2018-06-02T19:45:40.722Z,6.90
2018-06-02T19:48:10.284Z,6.50
2018-06-02T19:50:38.949Z,7.03
2018-06-02T19:53:07.702Z,6.13
2018-06-02T19:55:36.603Z,5.80
2018-06-02T19:58:05.480Z,6.50
2018-06-02T20:00:34.289Z,6.47
2018-06-02T20:03:03.073Z,6.23
2018-06-02T20:05:32.662Z,7.13
2018-06-02T20:08:01.494Z,6.67
2018-06-02T20:10:30.941Z,6.97
2018-06-02T20:13:00.597Z,7.30
2018-06-02T20:15:29.974Z,6.40
2018-06-02T20:17:59.001Z,6.67
2018-06-02T20:20:28.509Z,6.53
2018-06-02T20:22:57.403Z,6.73
2018-06-02T20:25:26.484Z,7.33
2018-06-02T20:27:56.262Z,6.50
2018-06-02T20:30:25.302Z,6.17
2018-06-02T20:32:55.308Z,6.43
2018-06-02T20:35:24.061Z,6.80
2018-06-02T20:37:53.058Z,7.40
2018-06-02T20:40:21.976Z,6.77
2018-06-02T20:42:52.460Z,6.60
2018-06-02T20:45:21.202Z,6.50
2018-06-02T20:47:50.721Z,6.50
2018-06-02T20:50:19.529Z,6.93
2018-06-02T20:52:48.286Z,6.80
2018-06-02T20:55:18.203Z,6.63
2018-06-02T20:57:47.608Z,7.30
2018-06-02T21:00:16.353Z,6.90
2018-06-02T21:02:45.459Z,6.30
2018-06-02T21:05:14.272Z,7.13
2018-06-02T21:07:42.918Z,7.00
2018-06-02T21:10:11.704Z,6.93
2018-06-02T21:12:40.757Z,6.87
2018-06-02T21:15:09.485Z,6.70
2018-06-02T21:17:38.388Z,7.93
2018-06-02T21:20:07.103Z,7.60
2018-06-02T21:22:35.809Z,7.20
2018-06-02T21:25:04.670Z,7.13
2018-06-02T21:27:34.358Z,7.23
2018-06-02T21:30:04.033Z,7.70
2018-06-02T21:32:33.632Z,7.30
2018-06-02T21:35:02.447Z,7.60
2018-06-02T21:37:31.139Z,7.90
2018-06-02T21:39:59.925Z,7.60
2018-06-02T21:42:28.661Z,7.93
2018-06-02T21:44:58.203Z,8.53
2018-06-02T21:47:26.859Z,8.47
2018-06-02T21:49:55.571Z,9.93
2018-06-02T21:52:24.361Z,9.73
2018-06-02T21:54:53.053Z,8.93
2018-06-02T21:57:21.792Z,9.27
2018-06-02T21:59:51.461Z,8.50
2018-06-02T22:02:20.209Z,8.20
2018-06-02T22:04:49.090Z,7.93
2018-06-02T22:07:18.048Z,8.20
2018-06-02T22:09:46.928Z,8.30
2018-06-02T22:12:15.676Z,8.70
2018-06-02T22:14:44.604Z,8.87
2018-06-02T22:17:13.623Z,8.43
2018-06-02T22:19:42.632Z,8.33
2018-06-02T22:22:11.437Z,8.50
2018-06-02T22:24:40.320Z,8.23
2018-06-02T22:27:09.891Z,7.33
2018-06-02T22:29:38.586Z,7.10
2018-06-02T22:32:07.391Z,7.80
2018-06-02T22:34:36.865Z,7.87
2018-06-02T22:37:05.701Z,8.50
2018-06-02T22:39:34.546Z,8.90
2018-06-02T22:42:03.665Z,8.30
2018-06-02T22:44:32.465Z,8.20
2018-06-02T22:47:05.399Z,8.20
2018-06-02T22:49:34.065Z,8.53
2018-06-02T22:52:02.880Z,7.90
2018-06-02T22:54:31.704Z,8.07
2018-06-02T22:57:01.353Z,7.83
2018-06-02T22:59:30.494Z,8.10
2018-06-02T23:02:00.088Z,8.03
2018-06-02T23:04:29.048Z,7.87
2018-06-02T23:06:57.681Z,7.67
2018-06-02T23:09:26.223Z,8.37
2018-06-02T23:11:54.802Z,9.30
2018-06-02T23:14:23.241Z,8.57
2018-06-02T23:16:51.885Z,8.20
2018-06-02T23:19:20.393Z,8.50
2018-06-02T23:21:48.896Z,8.87
2018-06-02T23:24:18.413Z,8.10
2018-06-02T23:26:46.999Z,8.40
2018-06-02T23:29:15.654Z,8.13
2018-06-02T23:31:45.003Z,8.47
2018-06-02T23:34:13.726Z,8.90
2018-06-02T23:36:42.341Z,8.63
2018-06-02T23:39:11.594Z,9.00
2018-06-02T23:41:40.440Z,9.40
2018-06-02T23:44:09.317Z,10.13
2018-06-02T23:46:38.576Z,9.00
2018-06-02T23:49:07.100Z,8.63
2018-06-02T23:51:35.840Z,8.60
2018-06-02T23:54:04.401Z,9.10
2018-06-02T23:56:32.950Z,9.23
2018-06-02T23:59:02.257Z,9.30
